sensor_id;sensor_type;location;lat;lon;timestamp;temperature;humidity
5364;DHT22;2705;41.410;2.160;2022-07-24T00:01:44;27.50;99.90
5364;DHT22;2705;41.410;2.160;2022-07-24T00:04:14;27.30;99.90
5364;DHT22;2705;41.410;2.160;2022-07-24T00:06:44;27.30;99.90
5364;DHT22;2705;41.410;2.160;2022-07-24T00:09:13;27.60;99.90
5364;DHT22;2705;41.410;2.160;2022-07-24T00:11:42;27.50;99.90
5364;DHT22;2705;41.410;2.160;2022-07-24T00:14:11;27.30;99.90
5364;DHT22;2705;41.410;2.160;2022-07-24T00:16:40;27.30;99.90
5364;DHT22;2705;41.410;2.160;2022-07-24T00:19:10;27.40;99.90
5364;DHT22;2705;41.410;2.160;2022-07-24T00:21:40;27.20;99.90
5364;DHT22;2705;41.410;2.160;2022-07-24T00:24:09;27.10;99.90
5364;DHT22;2705;41.410;2.160;2022-07-24T00:26:38;27.10;99.90
5364;DHT22;2705;41.410;2.160;2022-07-24T00:29:07;27.20;99.90
5364;DHT22;2705;41.410;2.160;2022-07-24T00:31:36;27.30;99.90
5364;DHT22;2705;41.410;2.160;2022-07-24T00:34:05;27.30;99.90
5364;DHT22;2705;41.410;2.160;2022-07-24T00:36:34;27.30;99.90
5364;DHT22;2705;41.410;2.160;2022-07-24T00:39:04;27.30;99.90
5364;DHT22;2705;41.410;2.160;2022-07-24T00:41:35;27.20;99.90
5364;DHT22;2705;41.410;2.160;2022-07-24T00:44:06;27.20;99.90
5364;DHT22;2705;41.410;2.160;2022-07-24T00:46:37;27.40;99.90
5364;DHT22;2705;41.410;2.160;2022-07-24T00:49:08;27.40;99.90
5364;DHT22;2705;41.410;2.160;2022-07-24T00:51:49;27.40;99.90
5364;DHT22;2705;41.410;2.160;2022-07-24T00:54:21;27.40;99.90
5364;DHT22;2705;41.410;2.160;2022-07-24T00:56:53;27.40;99.90
5364;DHT22;2705;41.410;2.160;2022-07-24T00:59:22;27.30;99.90
5364;DHT22;2705;41.410;2.160;2022-07-24T01:01:51;27.40;99.90
5364;DHT22;2705;41.410;2.160;2022-07-24T01:04:21;27.30;99.90
5364;DHT22;2705;41.410;2.160;2022-07-24T01:06:50;27.30;99.90
5364;DHT22;2705;41.410;2.160;2022-07-24T01:09:20;27.30;99.90
5364;DHT22;2705;41.410;2.160;2022-07-24T01:11:50;27.40;99.90
5364;DHT22;2705;41.410;2.160;2022-07-24T01:14:20;27.40;99.90
5364;DHT22;2705;41.410;2.160;2022-07-24T01:16:49;27.40;99.90
5364;DHT22;2705;41.410;2.160;2022-07-24T01:19:19;27.40;99.90
5364;DHT22;2705;41.410;2.160;2022-07-24T01:21:52;27.40;99.90
5364;DHT22;2705;41.410;2.160;2022-07-24T01:24:21;27.30;99.90
5364;DHT22;2705;41.410;2.160;2022-07-24T01:26:50;27.40;99.90
5364;DHT22;2705;41.410;2.160;2022-07-24T01:29:19;27.20;99.90
5364;DHT22;2705;41.410;2.160;2022-07-24T01:31:48;27.10;99.90
5364;DHT22;2705;41.410;2.160;2022-07-24T01:34:17;27.20;99.90
5364;DHT22;2705;41.410;2.160;2022-07-24T01:36:46;27.20;99.90
5364;DHT22;2705;41.410;2.160;2022-07-24T01:39:17;27.20;99.90
5364;DHT22;2705;41.410;2.160;2022-07-24T01:41:45;27.20;99.90
5364;DHT22;2705;41.410;2.160;2022-07-24T01:44:15;27.10;99.90
5364;DHT22;2705;41.410;2.160;2022-07-24T01:46:44;27.00;99.90
5364;DHT22;2705;41.410;2.160;2022-07-24T01:49:13;27.00;99.90
5364;DHT22;2705;41.410;2.160;2022-07-24T01:51:47;26.90;99.90
5364;DHT22;2705;41.410;2.160;2022-07-24T01:54:18;26.90;99.90
5364;DHT22;2705;41.410;2.160;2022-07-24T01:56:47;26.90;99.90
5364;DHT22;2705;41.410;2.160;2022-07-24T01:59:16;26.80;99.90
5364;DHT22;2705;41.410;2.160;2022-07-24T02:01:45;26.80;99.90
5364;DHT22;2705;41.410;2.160;2022-07-24T02:04:14;26.70;99.90
5364;DHT22;2705;41.410;2.160;2022-07-24T02:06:43;26.70;99.90
5364;DHT22;2705;41.410;2.160;2022-07-24T02:09:12;26.80;99.90
5364;DHT22;2705;41.410;2.160;2022-07-24T02:11:43;26.80;99.90
5364;DHT22;2705;41.410;2.160;2022-07-24T02:14:12;26.80;99.90
5364;DHT22;2705;41.410;2.160;2022-07-24T02:16:41;26.80;99.90
5364;DHT22;2705;41.410;2.160;2022-07-24T02:19:10;26.80;99.90
5364;DHT22;2705;41.410;2.160;2022-07-24T02:21:39;26.70;99.90
5364;DHT22;2705;41.410;2.160;2022-07-24T02:24:08;26.80;99.90
5364;DHT22;2705;41.410;2.160;2022-07-24T02:26:37;26.70;99.90
5364;DHT22;2705;41.410;2.160;2022-07-24T02:29:07;26.60;99.90
5364;DHT22;2705;41.410;2.160;2022-07-24T02:31:36;26.60;99.90
5364;DHT22;2705;41.410;2.160;2022-07-24T02:34:05;26.70;99.90
5364;DHT22;2705;41.410;2.160;2022-07-24T02:36:34;26.80;99.90
5364;DHT22;2705;41.410;2.160;2022-07-24T02:39:03;26.80;99.90
5364;DHT22;2705;41.410;2.160;2022-07-24T02:41:33;27.00;99.90
5364;DHT22;2705;41.410;2.160;2022-07-24T02:44:03;27.20;99.90
5364;DHT22;2705;41.410;2.160;2022-07-24T02:46:33;27.00;99.90
5364;DHT22;2705;41.410;2.160;2022-07-24T02:49:02;27.10;99.90
5364;DHT22;2705;41.410;2.160;2022-07-24T02:51:32;27.00;99.90
5364;DHT22;2705;41.410;2.160;2022-07-24T02:54:01;26.80;99.90
5364;DHT22;2705;41.410;2.160;2022-07-24T02:56:31;26.70;99.90
5364;DHT22;2705;41.410;2.160;2022-07-24T02:59:00;26.80;99.90
5364;DHT22;2705;41.410;2.160;2022-07-24T03:01:29;26.80;99.90
5364;DHT22;2705;41.410;2.160;2022-07-24T03:04:00;26.70;99.90
5364;DHT22;2705;41.410;2.160;2022-07-24T03:06:29;26.60;99.90
5364;DHT22;2705;41.410;2.160;2022-07-24T03:08:58;26.80;99.90
5364;DHT22;2705;41.410;2.160;2022-07-24T03:11:27;26.80;99.90
5364;DHT22;2705;41.410;2.160;2022-07-24T03:13:56;26.60;99.90
5364;DHT22;2705;41.410;2.160;2022-07-24T03:16:25;26.50;99.90
5364;DHT22;2705;41.410;2.160;2022-07-24T03:18:55;26.40;99.90
5364;DHT22;2705;41.410;2.160;2022-07-24T03:21:25;26.40;99.90
5364;DHT22;2705;41.410;2.160;2022-07-24T03:24:15;26.50;99.90
5364;DHT22;2705;41.410;2.160;2022-07-24T03:26:44;26.60;99.90
5364;DHT22;2705;41.410;2.160;2022-07-24T03:29:13;26.70;99.90
5364;DHT22;2705;41.410;2.160;2022-07-24T03:31:42;26.80;99.90
5364;DHT22;2705;41.410;2.160;2022-07-24T03:34:12;26.60;99.90
5364;DHT22;2705;41.410;2.160;2022-07-24T03:36:43;26.50;99.90
5364;DHT22;2705;41.410;2.160;2022-07-24T03:39:12;26.40;99.90
5364;DHT22;2705;41.410;2.160;2022-07-24T03:41:41;26.40;99.90
5364;DHT22;2705;41.410;2.160;2022-07-24T03:44:10;26.40;99.90
5364;DHT22;2705;41.410;2.160;2022-07-24T03:46:39;26.40;99.90
5364;DHT22;2705;41.410;2.160;2022-07-24T03:49:08;26.60;99.90
5364;DHT22;2705;41.410;2.160;2022-07-24T03:51:37;26.50;99.90
5364;DHT22;2705;41.410;2.160;2022-07-24T03:54:08;26.70;99.90
5364;DHT22;2705;41.410;2.160;2022-07-24T03:56:37;26.50;99.90
5364;DHT22;2705;41.410;2.160;2022-07-24T03:59:06;26.40;99.90
5364;DHT22;2705;41.410;2.160;2022-07-24T04:01:35;26.30;99.90
5364;DHT22;2705;41.410;2.160;2022-07-24T04:04:04;26.60;99.90
5364;DHT22;2705;41.410;2.160;2022-07-24T04:06:34;26.60;99.90
5364;DHT22;2705;41.410;2.160;2022-07-24T04:09:04;26.60;99.90
5364;DHT22;2705;41.410;2.160;2022-07-24T04:11:36;26.70;99.90
5364;DHT22;2705;41.410;2.160;2022-07-24T04:14:04;26.60;99.90
5364;DHT22;2705;41.410;2.160;2022-07-24T04:16:34;26.50;99.90
5364;DHT22;2705;41.410;2.160;2022-07-24T04:19:03;26.40;99.90
5364;DHT22;2705;41.410;2.160;2022-07-24T04:21:33;26.40;99.90
5364;DHT22;2705;41.410;2.160;2022-07-24T04:24:03;26.40;99.90
5364;DHT22;2705;41.410;2.160;2022-07-24T04:26:32;26.30;99.90
5364;DHT22;2705;41.410;2.160;2022-07-24T04:29:02;26.20;99.90
5364;DHT22;2705;41.410;2.160;2022-07-24T04:31:32;26.10;99.90
5364;DHT22;2705;41.410;2.160;2022-07-24T04:34:02;26.20;99.90
5364;DHT22;2705;41.410;2.160;2022-07-24T04:36:31;26.20;99.90
5364;DHT22;2705;41.410;2.160;2022-07-24T04:39:00;26.20;99.90
5364;DHT22;2705;41.410;2.160;2022-07-24T04:41:34;26.40;99.90
5364;DHT22;2705;41.410;2.160;2022-07-24T04:44:05;26.60;99.90
5364;DHT22;2705;41.410;2.160;2022-07-24T04:46:34;26.60;99.90
5364;DHT22;2705;41.410;2.160;2022-07-24T04:49:03;26.50;99.90
5364;DHT22;2705;41.410;2.160;2022-07-24T04:51:33;26.50;99.90
5364;DHT22;2705;41.410;2.160;2022-07-24T04:54:02;26.60;99.90
5364;DHT22;2705;41.410;2.160;2022-07-24T04:56:31;26.80;99.90
5364;DHT22;2705;41.410;2.160;2022-07-24T04:59:00;26.80;99.90
5364;DHT22;2705;41.410;2.160;2022-07-24T05:01:32;26.80;99.90
5364;DHT22;2705;41.410;2.160;2022-07-24T05:04:01;26.70;99.90
5364;DHT22;2705;41.410;2.160;2022-07-24T05:06:30;26.60;99.90
5364;DHT22;2705;41.410;2.160;2022-07-24T05:08:59;26.50;99.90
5364;DHT22;2705;41.410;2.160;2022-07-24T05:11:29;26.40;99.90
5364;DHT22;2705;41.410;2.160;2022-07-24T05:13:58;26.30;99.90
5364;DHT22;2705;41.410;2.160;2022-07-24T05:16:27;26.30;99.90
5364;DHT22;2705;41.410;2.160;2022-07-24T05:18:57;26.40;99.90
5364;DHT22;2705;41.410;2.160;2022-07-24T05:21:29;26.30;99.90
5364;DHT22;2705;41.410;2.160;2022-07-24T05:24:06;26.40;99.90
5364;DHT22;2705;41.410;2.160;2022-07-24T05:26:36;26.40;99.90
5364;DHT22;2705;41.410;2.160;2022-07-24T05:29:05;26.30;99.90
5364;DHT22;2705;41.410;2.160;2022-07-24T05:31:35;26.40;99.90
5364;DHT22;2705;41.410;2.160;2022-07-24T05:34:09;26.40;99.90
5364;DHT22;2705;41.410;2.160;2022-07-24T05:36:38;26.40;99.90
5364;DHT22;2705;41.410;2.160;2022-07-24T05:39:07;26.50;99.90
5364;DHT22;2705;41.410;2.160;2022-07-24T05:41:36;26.50;99.90
5364;DHT22;2705;41.410;2.160;2022-07-24T05:44:05;26.60;99.90
5364;DHT22;2705;41.410;2.160;2022-07-24T05:46:35;26.60;99.90
5364;DHT22;2705;41.410;2.160;2022-07-24T05:49:04;26.60;99.90
5364;DHT22;2705;41.410;2.160;2022-07-24T05:51:35;26.80;99.90
5364;DHT22;2705;41.410;2.160;2022-07-24T05:54:04;26.80;99.90
5364;DHT22;2705;41.410;2.160;2022-07-24T05:56:45;26.80;99.90
5364;DHT22;2705;41.410;2.160;2022-07-24T05:59:14;26.70;99.90
5364;DHT22;2705;41.410;2.160;2022-07-24T06:01:43;26.80;99.90
5364;DHT22;2705;41.410;2.160;2022-07-24T06:04:12;26.90;99.90
5364;DHT22;2705;41.410;2.160;2022-07-24T06:06:43;27.00;99.90
5364;DHT22;2705;41.410;2.160;2022-07-24T06:09:12;27.10;99.90
5364;DHT22;2705;41.410;2.160;2022-07-24T06:11:41;27.20;99.90
5364;DHT22;2705;41.410;2.160;2022-07-24T06:14:11;27.00;99.90
5364;DHT22;2705;41.410;2.160;2022-07-24T06:16:40;27.00;99.90
5364;DHT22;2705;41.410;2.160;2022-07-24T06:19:09;27.10;99.90
5364;DHT22;2705;41.410;2.160;2022-07-24T06:21:38;27.20;99.90
5364;DHT22;2705;41.410;2.160;2022-07-24T06:24:14;27.40;99.90
5364;DHT22;2705;41.410;2.160;2022-07-24T06:26:43;27.70;99.90
5364;DHT22;2705;41.410;2.160;2022-07-24T06:29:32;27.90;99.90
5364;DHT22;2705;41.410;2.160;2022-07-24T06:32:01;27.80;99.90
5364;DHT22;2705;41.410;2.160;2022-07-24T06:34:30;27.80;99.90
5364;DHT22;2705;41.410;2.160;2022-07-24T06:36:59;27.70;99.90
5364;DHT22;2705;41.410;2.160;2022-07-24T06:39:30;27.80;99.90
5364;DHT22;2705;41.410;2.160;2022-07-24T06:41:59;27.90;99.90
5364;DHT22;2705;41.410;2.160;2022-07-24T06:44:28;27.80;99.90
5364;DHT22;2705;41.410;2.160;2022-07-24T06:46:58;27.90;99.90
5364;DHT22;2705;41.410;2.160;2022-07-24T06:49:27;27.90;99.90
5364;DHT22;2705;41.410;2.160;2022-07-24T06:51:56;27.90;99.90
5364;DHT22;2705;41.410;2.160;2022-07-24T06:54:25;28.00;99.90
5364;DHT22;2705;41.410;2.160;2022-07-24T06:56:55;28.00;99.90
5364;DHT22;2705;41.410;2.160;2022-07-24T06:59:24;28.20;99.90
5364;DHT22;2705;41.410;2.160;2022-07-24T07:01:53;28.20;99.90
5364;DHT22;2705;41.410;2.160;2022-07-24T07:04:22;28.40;99.90
5364;DHT22;2705;41.410;2.160;2022-07-24T07:06:51;28.20;99.90
5364;DHT22;2705;41.410;2.160;2022-07-24T07:09:20;28.10;99.90
5364;DHT22;2705;41.410;2.160;2022-07-24T07:11:49;28.20;99.90
5364;DHT22;2705;41.410;2.160;2022-07-24T07:14:20;28.30;99.90
5364;DHT22;2705;41.410;2.160;2022-07-24T07:16:49;28.50;99.90
5364;DHT22;2705;41.410;2.160;2022-07-24T07:19:18;28.70;99.90
5364;DHT22;2705;41.410;2.160;2022-07-24T07:21:47;28.90;99.90
5364;DHT22;2705;41.410;2.160;2022-07-24T07:24:16;28.70;99.90
5364;DHT22;2705;41.410;2.160;2022-07-24T07:26:45;28.80;99.90
5364;DHT22;2705;41.410;2.160;2022-07-24T07:29:15;28.70;99.90
5364;DHT22;2705;41.410;2.160;2022-07-24T07:31:45;29.00;99.90
5364;DHT22;2705;41.410;2.160;2022-07-24T07:34:14;29.10;99.90
5364;DHT22;2705;41.410;2.160;2022-07-24T07:36:43;29.10;99.90
5364;DHT22;2705;41.410;2.160;2022-07-24T07:39:12;28.90;99.90
5364;DHT22;2705;41.410;2.160;2022-07-24T07:41:41;29.00;99.90
5364;DHT22;2705;41.410;2.160;2022-07-24T07:44:10;29.20;99.90
5364;DHT22;2705;41.410;2.160;2022-07-24T07:46:39;29.40;99.90
5364;DHT22;2705;41.410;2.160;2022-07-24T07:49:10;29.40;99.90
5364;DHT22;2705;41.410;2.160;2022-07-24T07:51:42;29.70;99.90
5364;DHT22;2705;41.410;2.160;2022-07-24T07:54:15;29.70;99.90
5364;DHT22;2705;41.410;2.160;2022-07-24T07:56:44;29.80;99.90
5364;DHT22;2705;41.410;2.160;2022-07-24T07:59:14;29.80;99.90
5364;DHT22;2705;41.410;2.160;2022-07-24T08:01:43;29.90;99.90
5364;DHT22;2705;41.410;2.160;2022-07-24T08:04:14;30.00;99.90
5364;DHT22;2705;41.410;2.160;2022-07-24T08:06:43;30.10;99.90
5364;DHT22;2705;41.410;2.160;2022-07-24T08:09:13;30.20;99.90
5364;DHT22;2705;41.410;2.160;2022-07-24T08:11:43;30.20;99.90
5364;DHT22;2705;41.410;2.160;2022-07-24T08:14:13;30.20;99.90
5364;DHT22;2705;41.410;2.160;2022-07-24T08:16:42;30.40;99.90
5364;DHT22;2705;41.410;2.160;2022-07-24T08:19:11;30.30;99.90
5364;DHT22;2705;41.410;2.160;2022-07-24T08:21:41;30.40;99.90
5364;DHT22;2705;41.410;2.160;2022-07-24T08:24:11;30.40;99.90
5364;DHT22;2705;41.410;2.160;2022-07-24T08:26:40;30.70;99.90
5364;DHT22;2705;41.410;2.160;2022-07-24T08:29:09;30.80;99.90
5364;DHT22;2705;41.410;2.160;2022-07-24T08:31:38;30.80;99.90
5364;DHT22;2705;41.410;2.160;2022-07-24T08:34:07;30.80;99.90
5364;DHT22;2705;41.410;2.160;2022-07-24T08:36:36;30.70;99.90
5364;DHT22;2705;41.410;2.160;2022-07-24T08:39:07;30.80;99.90
5364;DHT22;2705;41.410;2.160;2022-07-24T08:41:38;30.80;99.90
5364;DHT22;2705;41.410;2.160;2022-07-24T08:44:07;31.00;99.90
5364;DHT22;2705;41.410;2.160;2022-07-24T08:46:38;31.00;99.90
5364;DHT22;2705;41.410;2.160;2022-07-24T08:49:10;30.80;99.90
5364;DHT22;2705;41.410;2.160;2022-07-24T08:51:42;30.60;99.90
5364;DHT22;2705;41.410;2.160;2022-07-24T08:54:12;30.50;99.90
5364;DHT22;2705;41.410;2.160;2022-07-24T08:56:43;30.60;99.90
5364;DHT22;2705;41.410;2.160;2022-07-24T08:59:18;30.80;99.90
5364;DHT22;2705;41.410;2.160;2022-07-24T09:01:53;30.70;99.90
5364;DHT22;2705;41.410;2.160;2022-07-24T09:04:36;31.00;99.90
5364;DHT22;2705;41.410;2.160;2022-07-24T09:07:07;31.00;99.90
5364;DHT22;2705;41.410;2.160;2022-07-24T09:09:40;31.10;99.90
5364;DHT22;2705;41.410;2.160;2022-07-24T09:12:11;31.30;99.90
5364;DHT22;2705;41.410;2.160;2022-07-24T09:14:43;31.30;99.90
5364;DHT22;2705;41.410;2.160;2022-07-24T09:17:14;31.40;99.90
5364;DHT22;2705;41.410;2.160;2022-07-24T09:19:48;31.40;99.90
5364;DHT22;2705;41.410;2.160;2022-07-24T09:22:25;31.50;99.90
5364;DHT22;2705;41.410;2.160;2022-07-24T09:25:11;31.40;99.90
5364;DHT22;2705;41.410;2.160;2022-07-24T09:27:46;31.60;99.90
5364;DHT22;2705;41.410;2.160;2022-07-24T09:30:26;31.80;99.90
5364;DHT22;2705;41.410;2.160;2022-07-24T09:32:57;31.70;99.90
5364;DHT22;2705;41.410;2.160;2022-07-24T09:35:31;31.80;99.90
5364;DHT22;2705;41.410;2.160;2022-07-24T09:38:02;31.80;99.90
5364;DHT22;2705;41.410;2.160;2022-07-24T09:40:34;32.00;99.90
5364;DHT22;2705;41.410;2.160;2022-07-24T09:43:18;31.60;99.90
5364;DHT22;2705;41.410;2.160;2022-07-24T09:45:55;31.80;99.90
5364;DHT22;2705;41.410;2.160;2022-07-24T09:48:27;32.20;99.90
5364;DHT22;2705;41.410;2.160;2022-07-24T09:50:58;32.30;99.90
5364;DHT22;2705;41.410;2.160;2022-07-24T09:53:30;32.40;99.90
5364;DHT22;2705;41.410;2.160;2022-07-24T09:56:08;32.50;99.90
5364;DHT22;2705;41.410;2.160;2022-07-24T09:58:39;32.10;99.90
5364;DHT22;2705;41.410;2.160;2022-07-24T10:01:09;31.90;99.90
5364;DHT22;2705;41.410;2.160;2022-07-24T10:03:40;32.10;99.90
5364;DHT22;2705;41.410;2.160;2022-07-24T10:06:12;32.10;99.90
5364;DHT22;2705;41.410;2.160;2022-07-24T10:08:44;31.90;99.90
5364;DHT22;2705;41.410;2.160;2022-07-24T10:11:16;32.40;99.90
5364;DHT22;2705;41.410;2.160;2022-07-24T10:13:46;32.30;99.90
5364;DHT22;2705;41.410;2.160;2022-07-24T10:16:27;32.50;99.90
5364;DHT22;2705;41.410;2.160;2022-07-24T10:18:57;32.40;99.90
5364;DHT22;2705;41.410;2.160;2022-07-24T10:21:28;32.60;99.90
5364;DHT22;2705;41.410;2.160;2022-07-24T10:27:26;32.20;99.90
5364;DHT22;2705;41.410;2.160;2022-07-24T10:29:57;32.10;99.90
5364;DHT22;2705;41.410;2.160;2022-07-24T10:32:27;32.00;99.90
5364;DHT22;2705;41.410;2.160;2022-07-24T10:35:06;32.20;99.90
5364;DHT22;2705;41.410;2.160;2022-07-24T10:37:43;32.40;99.90
5364;DHT22;2705;41.410;2.160;2022-07-24T10:40:23;32.30;99.90
5364;DHT22;2705;41.410;2.160;2022-07-24T10:43:10;32.70;99.90
5364;DHT22;2705;41.410;2.160;2022-07-24T10:45:40;32.70;99.90
5364;DHT22;2705;41.410;2.160;2022-07-24T10:48:28;32.90;99.90
5364;DHT22;2705;41.410;2.160;2022-07-24T10:51:04;32.50;99.90
5364;DHT22;2705;41.410;2.160;2022-07-24T10:53:50;32.60;99.90
5364;DHT22;2705;41.410;2.160;2022-07-24T10:56:22;32.50;99.90
5364;DHT22;2705;41.410;2.160;2022-07-24T10:59:05;32.60;99.90
5364;DHT22;2705;41.410;2.160;2022-07-24T11:01:39;32.90;99.90
5364;DHT22;2705;41.410;2.160;2022-07-24T11:04:28;32.80;99.90
5364;DHT22;2705;41.410;2.160;2022-07-24T11:07:08;32.70;99.90
5364;DHT22;2705;41.410;2.160;2022-07-24T11:09:55;32.70;99.90
5364;DHT22;2705;41.410;2.160;2022-07-24T11:12:28;32.60;99.90
5364;DHT22;2705;41.410;2.160;2022-07-24T11:15:03;32.90;99.90
5364;DHT22;2705;41.410;2.160;2022-07-24T11:17:50;33.10;99.90
5364;DHT22;2705;41.410;2.160;2022-07-24T11:20:21;32.60;99.90
5364;DHT22;2705;41.410;2.160;2022-07-24T11:22:54;32.30;99.90
5364;DHT22;2705;41.410;2.160;2022-07-24T11:25:28;32.50;99.90
5364;DHT22;2705;41.410;2.160;2022-07-24T11:28:12;32.80;99.90
5364;DHT22;2705;41.410;2.160;2022-07-24T11:30:45;32.80;99.90
5364;DHT22;2705;41.410;2.160;2022-07-24T11:33:20;32.40;99.90
5364;DHT22;2705;41.410;2.160;2022-07-24T11:35:50;32.30;99.90
5364;DHT22;2705;41.410;2.160;2022-07-24T11:38:28;32.20;99.90
5364;DHT22;2705;41.410;2.160;2022-07-24T11:41:04;32.50;99.90
5364;DHT22;2705;41.410;2.160;2022-07-24T11:43:34;32.60;99.90
5364;DHT22;2705;41.410;2.160;2022-07-24T11:46:04;32.80;99.90
5364;DHT22;2705;41.410;2.160;2022-07-24T11:48:34;32.50;99.90
5364;DHT22;2705;41.410;2.160;2022-07-24T11:51:05;32.70;99.90
5364;DHT22;2705;41.410;2.160;2022-07-24T11:53:55;32.90;99.90
5364;DHT22;2705;41.410;2.160;2022-07-24T11:56:25;33.20;99.90
5364;DHT22;2705;41.410;2.160;2022-07-24T11:58:55;32.90;99.90
5364;DHT22;2705;41.410;2.160;2022-07-24T12:01:26;33.00;99.90
5364;DHT22;2705;41.410;2.160;2022-07-24T12:03:58;33.30;99.90
5364;DHT22;2705;41.410;2.160;2022-07-24T12:06:31;33.50;99.90
5364;DHT22;2705;41.410;2.160;2022-07-24T12:09:06;33.40;99.90
5364;DHT22;2705;41.410;2.160;2022-07-24T12:11:38;33.40;99.90
5364;DHT22;2705;41.410;2.160;2022-07-24T12:14:14;33.40;99.90
5364;DHT22;2705;41.410;2.160;2022-07-24T12:16:52;32.90;99.90
5364;DHT22;2705;41.410;2.160;2022-07-24T12:19:23;33.20;99.90
5364;DHT22;2705;41.410;2.160;2022-07-24T12:21:53;33.40;99.90
5364;DHT22;2705;41.410;2.160;2022-07-24T12:24:23;33.50;99.90
5364;DHT22;2705;41.410;2.160;2022-07-24T12:26:59;33.30;99.90
5364;DHT22;2705;41.410;2.160;2022-07-24T12:29:28;33.40;99.90
5364;DHT22;2705;41.410;2.160;2022-07-24T12:32:14;33.20;99.90
5364;DHT22;2705;41.410;2.160;2022-07-24T12:34:45;33.20;99.90
5364;DHT22;2705;41.410;2.160;2022-07-24T12:37:37;33.50;99.90
5364;DHT22;2705;41.410;2.160;2022-07-24T12:40:07;33.40;99.90
5364;DHT22;2705;41.410;2.160;2022-07-24T12:42:39;33.30;99.90
5364;DHT22;2705;41.410;2.160;2022-07-24T12:45:09;33.00;99.90
5364;DHT22;2705;41.410;2.160;2022-07-24T12:48:05;33.20;99.90
5364;DHT22;2705;41.410;2.160;2022-07-24T12:50:35;33.10;99.90
5364;DHT22;2705;41.410;2.160;2022-07-24T12:53:26;33.20;99.90
5364;DHT22;2705;41.410;2.160;2022-07-24T12:56:05;33.60;99.90
5364;DHT22;2705;41.410;2.160;2022-07-24T12:59:00;33.80;99.90
5364;DHT22;2705;41.410;2.160;2022-07-24T13:01:46;34.00;99.90
5364;DHT22;2705;41.410;2.160;2022-07-24T13:04:18;33.80;99.90
5364;DHT22;2705;41.410;2.160;2022-07-24T13:06:49;33.40;99.90
5364;DHT22;2705;41.410;2.160;2022-07-24T13:09:19;33.70;99.90
5364;DHT22;2705;41.410;2.160;2022-07-24T13:11:50;34.00;99.90
5364;DHT22;2705;41.410;2.160;2022-07-24T13:14:20;33.30;99.90
5364;DHT22;2705;41.410;2.160;2022-07-24T13:16:51;33.10;99.90
5364;DHT22;2705;41.410;2.160;2022-07-24T13:19:22;33.20;99.90
5364;DHT22;2705;41.410;2.160;2022-07-24T13:21:51;33.20;99.90
5364;DHT22;2705;41.410;2.160;2022-07-24T13:24:20;33.10;99.90
5364;DHT22;2705;41.410;2.160;2022-07-24T13:26:50;33.20;99.90
5364;DHT22;2705;41.410;2.160;2022-07-24T13:29:25;33.10;99.90
5364;DHT22;2705;41.410;2.160;2022-07-24T13:31:54;33.20;99.90
5364;DHT22;2705;41.410;2.160;2022-07-24T13:34:25;33.50;99.90
5364;DHT22;2705;41.410;2.160;2022-07-24T13:36:58;33.30;99.90
5364;DHT22;2705;41.410;2.160;2022-07-24T13:39:27;33.50;99.90
5364;DHT22;2705;41.410;2.160;2022-07-24T13:41:56;33.20;99.90
5364;DHT22;2705;41.410;2.160;2022-07-24T13:44:25;33.50;99.90
5364;DHT22;2705;41.410;2.160;2022-07-24T13:46:55;34.00;99.90
5364;DHT22;2705;41.410;2.160;2022-07-24T13:49:29;34.20;99.90
5364;DHT22;2705;41.410;2.160;2022-07-24T13:52:05;34.60;99.90
5364;DHT22;2705;41.410;2.160;2022-07-24T13:54:37;34.70;99.90
5364;DHT22;2705;41.410;2.160;2022-07-24T13:57:06;35.20;99.90
5364;DHT22;2705;41.410;2.160;2022-07-24T13:59:36;34.80;99.90
5364;DHT22;2705;41.410;2.160;2022-07-24T14:02:05;35.00;99.90
5364;DHT22;2705;41.410;2.160;2022-07-24T14:04:36;34.70;99.90
5364;DHT22;2705;41.410;2.160;2022-07-24T14:07:05;34.60;99.90
5364;DHT22;2705;41.410;2.160;2022-07-24T14:09:34;34.40;99.90
5364;DHT22;2705;41.410;2.160;2022-07-24T14:12:04;35.00;99.90
5364;DHT22;2705;41.410;2.160;2022-07-24T14:14:39;35.30;99.90
5364;DHT22;2705;41.410;2.160;2022-07-24T14:17:09;35.60;99.90
5364;DHT22;2705;41.410;2.160;2022-07-24T14:19:40;35.80;99.90
5364;DHT22;2705;41.410;2.160;2022-07-24T14:22:09;35.50;99.90
5364;DHT22;2705;41.410;2.160;2022-07-24T14:24:40;35.50;99.90
5364;DHT22;2705;41.410;2.160;2022-07-24T14:27:11;35.90;99.90
5364;DHT22;2705;41.410;2.160;2022-07-24T14:29:40;36.30;99.90
5364;DHT22;2705;41.410;2.160;2022-07-24T14:32:09;35.80;99.90
5364;DHT22;2705;41.410;2.160;2022-07-24T14:34:39;36.00;99.90
5364;DHT22;2705;41.410;2.160;2022-07-24T14:37:09;35.50;99.90
5364;DHT22;2705;41.410;2.160;2022-07-24T14:39:45;35.80;99.90
5364;DHT22;2705;41.410;2.160;2022-07-24T14:42:13;36.30;99.90
5364;DHT22;2705;41.410;2.160;2022-07-24T14:44:42;36.30;99.90
5364;DHT22;2705;41.410;2.160;2022-07-24T14:47:14;36.40;99.90
5364;DHT22;2705;41.410;2.160;2022-07-24T14:49:44;36.20;99.90
5364;DHT22;2705;41.410;2.160;2022-07-24T14:52:13;35.80;99.90
5364;DHT22;2705;41.410;2.160;2022-07-24T14:54:45;35.70;99.90
5364;DHT22;2705;41.410;2.160;2022-07-24T14:57:14;35.80;99.90
5364;DHT22;2705;41.410;2.160;2022-07-24T14:59:44;35.90;99.90
5364;DHT22;2705;41.410;2.160;2022-07-24T15:02:13;35.60;99.90
5364;DHT22;2705;41.410;2.160;2022-07-24T15:04:43;35.40;99.90
5364;DHT22;2705;41.410;2.160;2022-07-24T15:07:14;35.60;99.90
5364;DHT22;2705;41.410;2.160;2022-07-24T15:09:47;35.20;99.90
5364;DHT22;2705;41.410;2.160;2022-07-24T15:12:19;34.70;99.90
5364;DHT22;2705;41.410;2.160;2022-07-24T15:14:51;34.50;99.90
5364;DHT22;2705;41.410;2.160;2022-07-24T15:17:20;34.30;99.90
5364;DHT22;2705;41.410;2.160;2022-07-24T15:19:51;33.90;99.90
5364;DHT22;2705;41.410;2.160;2022-07-24T15:22:20;33.80;99.90
5364;DHT22;2705;41.410;2.160;2022-07-24T15:24:50;33.80;99.90
5364;DHT22;2705;41.410;2.160;2022-07-24T15:27:20;33.40;99.90
5364;DHT22;2705;41.410;2.160;2022-07-24T15:29:49;33.00;99.90
5364;DHT22;2705;41.410;2.160;2022-07-24T15:32:19;32.90;99.90
5364;DHT22;2705;41.410;2.160;2022-07-24T15:34:51;33.00;99.90
5364;DHT22;2705;41.410;2.160;2022-07-24T15:37:21;33.00;99.90
5364;DHT22;2705;41.410;2.160;2022-07-24T15:39:50;33.00;99.90
5364;DHT22;2705;41.410;2.160;2022-07-24T15:42:19;33.10;99.90
5364;DHT22;2705;41.410;2.160;2022-07-24T15:44:53;33.00;99.90
5364;DHT22;2705;41.410;2.160;2022-07-24T15:47:22;33.00;99.90
5364;DHT22;2705;41.410;2.160;2022-07-24T15:49:52;32.80;99.90
5364;DHT22;2705;41.410;2.160;2022-07-24T15:52:21;32.90;99.90
5364;DHT22;2705;41.410;2.160;2022-07-24T15:54:51;33.00;99.90
5364;DHT22;2705;41.410;2.160;2022-07-24T15:57:20;33.00;99.90
5364;DHT22;2705;41.410;2.160;2022-07-24T15:59:50;33.00;99.90
5364;DHT22;2705;41.410;2.160;2022-07-24T16:02:19;33.00;99.90
5364;DHT22;2705;41.410;2.160;2022-07-24T16:04:52;32.90;99.90
5364;DHT22;2705;41.410;2.160;2022-07-24T16:07:21;32.80;99.90
5364;DHT22;2705;41.410;2.160;2022-07-24T16:09:50;32.90;99.90
5364;DHT22;2705;41.410;2.160;2022-07-24T16:12:20;32.80;99.90
5364;DHT22;2705;41.410;2.160;2022-07-24T16:14:50;32.60;99.90
5364;DHT22;2705;41.410;2.160;2022-07-24T16:17:19;32.60;99.90
5364;DHT22;2705;41.410;2.160;2022-07-24T16:19:49;32.70;99.90
5364;DHT22;2705;41.410;2.160;2022-07-24T16:22:19;32.80;99.90
5364;DHT22;2705;41.410;2.160;2022-07-24T16:24:50;32.80;99.90
5364;DHT22;2705;41.410;2.160;2022-07-24T16:27:19;32.60;99.90
5364;DHT22;2705;41.410;2.160;2022-07-24T16:29:48;32.50;99.90
5364;DHT22;2705;41.410;2.160;2022-07-24T16:32:17;32.60;99.90